Time;durP1;ratioP1;P1;durP2;ratioP2;P2;SDS_P1;SDS_P2;PMS_P1;PMS_P2;Temp;Humidity;BMP_temperature;BMP_pressure;BME280_temperature;BME280_humidity;BME280_pressure;Samples;Min_cycle;Max_cycle;Signal;HPM_P1;HPM_P2
2024/02/04 00:01:20;;;;;;;27.92;11.65;;;9.50;99.90;;;;;;5060804;28;20029;-62
2024/02/04 00:03:45;;;;;;;22.98;9.68;;;9.50;99.90;;;;;;5063019;28;20569;-62
2024/02/04 00:06:11;;;;;;;20.73;9.10;;;9.50;99.90;;;;;;5062625;28;20027;-62
2024/02/04 00:08:36;;;;;;;23.67;11.05;;;9.50;99.90;;;;;;5058174;28;20031;-62
2024/02/04 00:11:04;;;;;;;19.95;9.57;;;9.50;99.90;;;;;;5062201;28;20036;-62
2024/02/04 00:13:30;;;;;;;22.88;9.40;;;9.50;99.90;;;;;;5060860;28;20060;-63
2024/02/04 00:15:58;;;;;;;21.50;9.60;;;9.50;99.90;;;;;;5060329;28;20032;-62
2024/02/04 00:18:24;;;;;;;21.08;8.82;;;9.50;99.90;;;;;;5060361;28;20029;-62
2024/02/04 00:20:50;;;;;;;18.20;9.15;;;9.50;99.90;;;;;;5061157;28;20028;-62
2024/02/04 00:23:15;;;;;;;16.83;8.07;;;9.50;99.90;;;;;;5060047;28;20112;-62
2024/02/04 00:25:41;;;;;;;16.30;8.15;;;9.50;99.90;;;;;;5061775;28;20024;-62
2024/02/04 00:28:07;;;;;;;17.35;7.68;;;9.50;99.90;;;;;;5061008;28;20024;-62
2024/02/04 00:30:33;;;;;;;16.95;8.57;;;9.50;99.90;;;;;;5061434;28;20021;-62
2024/02/04 00:33:02;;;;;;;13.50;6.43;;;9.50;99.90;;;;;;5063068;28;20492;-62
2024/02/04 00:35:28;;;;;;;18.40;6.90;;;9.40;99.90;;;;;;5062705;28;20361;-62
2024/02/04 00:37:54;;;;;;;14.43;6.30;;;9.40;99.90;;;;;;5061711;28;20032;-62
2024/02/04 00:40:20;;;;;;;16.27;7.95;;;9.50;99.90;;;;;;5059186;28;20028;-62
2024/02/04 00:42:45;;;;;;;17.45;7.43;;;9.50;99.90;;;;;;5059069;28;20029;-61
2024/02/04 00:45:11;;;;;;;13.07;5.18;;;9.40;99.90;;;;;;5062394;28;20025;-62
2024/02/04 00:47:37;;;;;;;12.38;5.38;;;9.40;99.90;;;;;;5059991;28;20089;-62
2024/02/04 00:50:02;;;;;;;13.70;6.40;;;9.40;99.90;;;;;;5059784;28;20021;-62
2024/02/04 00:52:28;;;;;;;15.95;5.95;;;9.40;99.90;;;;;;5061517;28;20028;-62
2024/02/04 00:54:54;;;;;;;15.70;5.93;;;9.40;99.90;;;;;;5057495;28;20353;-62
2024/02/04 00:57:19;;;;;;;11.55;5.13;;;9.40;99.90;;;;;;5060244;28;20037;-62
2024/02/04 00:59:45;;;;;;;12.20;5.35;;;9.40;99.90;;;;;;5058374;28;20039;-62
2024/02/04 01:02:10;;;;;;;10.90;4.78;;;9.40;99.90;;;;;;5061509;28;20457;-62
2024/02/04 01:04:36;;;;;;;11.68;5.25;;;9.40;99.90;;;;;;5060488;28;20112;-62
2024/02/04 01:07:02;;;;;;;12.05;4.80;;;9.40;99.90;;;;;;5061672;28;20082;-62
2024/02/04 01:09:28;;;;;;;11.65;5.20;;;9.40;99.90;;;;;;5063305;28;20036;-62
2024/02/04 01:11:54;;;;;;;12.02;4.75;;;9.40;99.90;;;;;;5057665;28;20040;-62
2024/02/04 01:14:19;;;;;;;9.50;4.35;;;9.40;99.90;;;;;;5058915;28;20504;-61
2024/02/04 01:16:45;;;;;;;9.43;3.78;;;9.40;99.90;;;;;;5057609;28;20083;-62
2024/02/04 01:19:10;;;;;;;10.68;4.38;;;9.30;99.90;;;;;;5062451;28;20033;-62
2024/02/04 01:21:36;;;;;;;8.18;3.15;;;9.40;99.90;;;;;;5057422;28;20103;-62
2024/02/04 01:24:02;;;;;;;12.77;4.22;;;9.40;99.90;;;;;;5059989;28;20407;-61
2024/02/04 01:26:28;;;;;;;10.40;3.95;;;9.40;99.90;;;;;;5061008;28;20013;-63
2024/02/04 01:28:53;;;;;;;9.27;3.58;;;9.30;99.90;;;;;;5059612;28;20032;-62
2024/02/04 01:31:19;;;;;;;8.52;3.40;;;9.40;99.90;;;;;;5061903;28;20020;-62
2024/02/04 01:33:45;;;;;;;9.68;3.20;;;9.30;99.90;;;;;;5056446;28;20035;-62
2024/02/04 01:36:10;;;;;;;9.93;2.90;;;9.30;99.90;;;;;;5057656;28;20029;-62
2024/02/04 01:38:36;;;;;;;7.40;3.10;;;9.20;99.90;;;;;;5061734;28;20024;-62
2024/02/04 01:41:01;;;;;;;6.80;2.50;;;9.20;99.90;;;;;;5059348;28;20512;-62
2024/02/04 01:43:27;;;;;;;6.10;2.15;;;9.30;99.90;;;;;;5060030;28;20099;-62
2024/02/04 01:45:53;;;;;;;7.22;2.60;;;9.20;99.90;;;;;;5061239;28;20021;-62
2024/02/04 01:48:21;;;;;;;7.30;2.67;;;9.20;99.90;;;;;;5060799;28;20025;-62
2024/02/04 01:50:48;;;;;;;7.00;2.30;;;9.30;99.90;;;;;;5055771;28;20025;-62
2024/02/04 01:53:16;;;;;;;7.63;2.85;;;9.20;99.90;;;;;;5061805;28;20111;-62
2024/02/04 01:55:42;;;;;;;8.27;2.75;;;9.20;99.90;;;;;;5055527;28;20093;-62
2024/02/04 01:58:08;;;;;;;6.68;2.20;;;9.20;99.90;;;;;;5062933;28;20122;-63
2024/02/04 02:00:33;;;;;;;7.13;2.40;;;9.20;99.90;;;;;;5062053;28;20574;-62
2024/02/04 02:03:00;;;;;;;12.23;3.55;;;9.20;99.90;;;;;;5061399;28;20407;-62
2024/02/04 02:05:26;;;;;;;7.80;1.70;;;9.30;99.90;;;;;;5059465;28;20036;-62
2024/02/04 02:07:52;;;;;;;6.07;2.00;;;9.20;99.90;;;;;;5060236;28;20025;-62
2024/02/04 02:10:19;;;;;;;6.50;2.35;;;9.20;99.90;;;;;;5060907;28;20023;-62
2024/02/04 02:12:53;;;;;;;5.22;1.73;;;9.20;99.90;;;;;;5057759;28;20411;-62
2024/02/04 02:15:23;;;;;;;7.05;2.28;;;9.30;99.90;;;;;;5060713;28;20452;-62
2024/02/04 02:17:59;;;;;;;5.85;1.88;;;9.20;99.90;;;;;;5057889;28;20025;-62
2024/02/04 02:20:46;;;;;;;3.65;1.48;;;9.30;99.90;;;;;;5054782;28;20060;-62
2024/02/04 02:23:17;;;;;;;5.50;1.80;;;9.30;99.90;;;;;;5057350;28;20087;-61
2024/02/04 02:25:45;;;;;;;4.72;1.65;;;9.20;99.90;;;;;;5060917;28;20140;-60
2024/02/04 02:28:12;;;;;;;6.55;2.10;;;9.20;99.90;;;;;;5061088;28;20029;-61
2024/02/04 02:30:37;;;;;;;6.05;2.22;;;9.30;99.90;;;;;;5059629;28;20048;-60
2024/02/04 02:33:05;;;;;;;6.85;2.40;;;9.20;99.90;;;;;;5058033;28;20079;-60
2024/02/04 02:35:31;;;;;;;7.85;3.15;;;9.30;99.90;;;;;;5057356;28;20024;-60
2024/02/04 02:38:31;;;;;;;8.68;3.33;;;9.30;99.90;;;;;;5060612;28;20086;-61
2024/02/04 02:41:03;;;;;;;7.00;2.58;;;9.30;99.90;;;;;;5048597;28;20036;-60
2024/02/04 02:43:30;;;;;;;7.70;2.95;;;9.20;99.90;;;;;;5049089;28;20017;-61
2024/02/04 02:45:55;;;;;;;8.95;4.00;;;9.20;99.90;;;;;;5058959;28;20719;-60
2024/02/04 02:48:22;;;;;;;10.50;3.80;;;9.30;99.90;;;;;;5058857;28;20434;-60
2024/02/04 02:50:47;;;;;;;13.23;4.47;;;9.30;99.90;;;;;;5051194;28;20032;-60
2024/02/04 02:53:13;;;;;;;12.02;4.65;;;9.30;99.90;;;;;;5057943;28;20017;-61
2024/02/04 02:55:40;;;;;;;11.15;4.47;;;9.30;99.90;;;;;;5060179;28;20078;-60
2024/02/04 02:58:07;;;;;;;12.23;5.22;;;9.30;99.90;;;;;;5057815;28;20068;-61
2024/02/04 03:00:33;;;;;;;14.38;5.78;;;9.30;99.90;;;;;;5061571;28;20079;-60
2024/02/04 03:02:59;;;;;;;11.82;5.75;;;9.40;99.90;;;;;;5060136;28;20025;-59
2024/02/04 03:05:24;;;;;;;15.93;7.20;;;9.40;99.90;;;;;;5060959;28;20027;-59
2024/02/04 03:07:50;;;;;;;17.48;8.73;;;9.40;99.90;;;;;;5060891;28;20017;-59
2024/02/04 03:10:16;;;;;;;16.55;8.50;;;9.40;99.90;;;;;;5059135;28;20098;-60
2024/02/04 03:12:41;;;;;;;16.50;6.65;;;9.40;99.90;;;;;;5057288;28;20075;-60
2024/02/04 03:15:07;;;;;;;22.77;12.98;;;9.50;99.90;;;;;;5057119;28;20028;-60
2024/02/04 03:17:33;;;;;;;19.25;8.32;;;9.40;99.90;;;;;;5060401;28;20039;-60
2024/02/04 03:19:58;;;;;;;16.10;7.57;;;9.40;99.90;;;;;;5058039;28;20025;-60
2024/02/04 03:22:24;;;;;;;21.42;8.23;;;9.40;99.90;;;;;;5063485;28;20469;-60
2024/02/04 03:24:50;;;;;;;23.38;9.75;;;9.40;99.90;;;;;;5061684;28;20031;-60
2024/02/04 03:27:18;;;;;;;24.73;10.55;;;9.50;99.90;;;;;;5061723;28;20100;-60
2024/02/04 03:29:44;;;;;;;23.98;10.10;;;9.50;99.90;;;;;;5061818;28;20154;-59
2024/02/04 03:32:13;;;;;;;22.02;9.90;;;9.50;99.90;;;;;;5059425;28;20505;-61
2024/02/04 03:34:41;;;;;;;31.90;12.10;;;9.50;99.90;;;;;;5064184;28;20063;-60
2024/02/04 03:37:07;;;;;;;29.27;12.18;;;9.50;99.90;;;;;;5063351;28;20024;-61
2024/02/04 03:39:32;;;;;;;29.20;12.70;;;9.40;99.90;;;;;;5059071;28;20036;-61
2024/02/04 03:41:58;;;;;;;29.05;12.77;;;9.50;99.90;;;;;;5063515;28;20119;-60
2024/02/04 03:44:23;;;;;;;30.55;14.23;;;9.50;99.90;;;;;;5060894;28;20052;-60
2024/02/04 03:46:50;;;;;;;29.35;11.85;;;9.40;99.90;;;;;;5061756;28;20048;-60
2024/02/04 03:49:17;;;;;;;29.77;14.43;;;9.50;99.90;;;;;;5062304;28;20040;-60
2024/02/04 03:51:42;;;;;;;30.90;13.80;;;9.40;99.90;;;;;;5058837;28;20044;-60
2024/02/04 03:54:08;;;;;;;36.10;14.55;;;9.50;99.90;;;;;;5060479;28;20033;-60
2024/02/04 03:56:34;;;;;;;40.30;15.25;;;9.40;99.90;;;;;;5063033;28;20021;-61
2024/02/04 03:58:59;;;;;;;24.65;9.93;;;9.40;99.90;;;;;;5059348;28;20029;-61
2024/02/04 04:01:25;;;;;;;33.25;16.23;;;9.40;99.90;;;;;;5060202;28;20468;-61
2024/02/04 04:03:50;;;;;;;31.73;14.23;;;9.40;99.90;;;;;;5063454;28;20036;-60
2024/02/04 04:06:16;;;;;;;35.88;13.65;;;9.40;99.90;;;;;;5063865;28;20058;-61
2024/02/04 04:08:42;;;;;;;29.63;12.88;;;9.50;99.90;;;;;;5062762;28;20025;-61
2024/02/04 04:11:09;;;;;;;35.67;14.00;;;9.50;99.90;;;;;;5057755;28;20021;-61
2024/02/04 04:13:35;;;;;;;22.33;10.30;;;9.50;99.90;;;;;;5058507;28;20128;-60
2024/02/04 04:16:01;;;;;;;34.50;14.23;;;9.50;99.90;;;;;;5058834;28;20575;-60
2024/02/04 04:18:27;;;;;;;38.60;15.05;;;9.50;99.90;;;;;;5057634;28;20021;-61
2024/02/04 04:20:52;;;;;;;37.47;15.95;;;9.40;99.90;;;;;;5059956;28;20541;-61
2024/02/04 04:23:18;;;;;;;38.08;16.08;;;9.40;99.90;;;;;;5058433;28;20029;-60
2024/02/04 04:25:44;;;;;;;37.95;16.58;;;9.40;99.90;;;;;;5060824;28;20104;-61
2024/02/04 04:28:09;;;;;;;39.58;15.77;;;9.40;99.90;;;;;;5058583;28;20056;-60
2024/02/04 04:30:35;;;;;;;37.95;16.17;;;9.40;99.90;;;;;;5062745;28;20024;-61
2024/02/04 04:33:01;;;;;;;37.25;16.17;;;9.40;99.90;;;;;;5058877;28;20024;-61
2024/02/04 04:35:26;;;;;;;33.53;14.63;;;9.40;99.90;;;;;;5063368;28;20055;-61
2024/02/04 04:37:52;;;;;;;29.95;13.55;;;9.40;99.90;;;;;;5061286;28;20020;-61
2024/02/04 04:40:18;;;;;;;33.28;13.50;;;9.40;99.90;;;;;;5060447;28;20028;-61
2024/02/04 04:42:43;;;;;;;37.97;16.30;;;9.40;99.90;;;;;;5057295;28;20029;-62
2024/02/04 04:45:10;;;;;;;36.05;15.27;;;9.40;99.90;;;;;;5060036;28;20028;-62
2024/02/04 04:47:37;;;;;;;35.42;15.18;;;9.40;99.90;;;;;;5060523;28;20460;-62
2024/02/04 04:50:04;;;;;;;39.25;17.00;;;9.50;99.90;;;;;;5057301;28;20025;-62
2024/02/04 04:52:30;;;;;;;43.25;18.10;;;9.40;99.90;;;;;;5058168;28;20025;-62
2024/02/04 04:54:56;;;;;;;44.53;17.23;;;9.40;99.90;;;;;;5062268;28;20037;-62
2024/02/04 04:57:22;;;;;;;38.83;15.90;;;9.40;99.90;;;;;;5057858;28;20115;-61
2024/02/04 04:59:47;;;;;;;33.80;15.30;;;9.50;99.90;;;;;;5061432;28;20152;-61
2024/02/04 05:02:13;;;;;;;41.08;16.38;;;9.50;99.90;;;;;;5067288;28;20464;-61
2024/02/04 05:04:43;;;;;;;31.13;12.40;;;9.50;99.90;;;;;;5061701;28;20032;-61
2024/02/04 05:07:09;;;;;;;24.42;11.50;;;9.50;99.90;;;;;;5059994;28;20103;-62
2024/02/04 05:09:35;;;;;;;26.38;12.18;;;9.50;99.90;;;;;;5060818;28;20128;-62
2024/02/04 05:12:02;;;;;;;33.47;18.27;;;9.50;99.90;;;;;;5058002;28;20053;-61
2024/02/04 05:14:27;;;;;;;28.40;12.10;;;9.50;99.90;;;;;;5058290;28;20499;-61
2024/02/04 05:16:53;;;;;;;26.95;12.02;;;9.50;99.90;;;;;;5058050;28;20029;-62
2024/02/04 05:19:18;;;;;;;25.67;11.38;;;9.50;99.90;;;;;;5061647;28;20381;-61
2024/02/04 05:21:44;;;;;;;31.60;12.50;;;9.40;99.90;;;;;;5056719;28;20028;-61
2024/02/04 05:24:10;;;;;;;28.48;12.45;;;9.50;99.90;;;;;;5058383;28;20100;-61
2024/02/04 05:26:36;;;;;;;30.55;14.60;;;9.50;99.90;;;;;;5060512;28;20098;-61
2024/02/04 05:29:02;;;;;;;29.75;13.45;;;9.50;99.90;;;;;;5058961;28;20025;-61
2024/02/04 05:31:27;;;;;;;29.77;12.57;;;9.50;99.90;;;;;;5057516;28;20021;-61
2024/02/04 05:33:53;;;;;;;36.05;15.88;;;9.50;99.90;;;;;;5060735;28;20035;-61
2024/02/04 05:36:19;;;;;;;36.15;15.50;;;9.50;99.90;;;;;;5054910;28;20032;-61
2024/02/04 05:38:46;;;;;;;28.80;11.43;;;9.40;99.90;;;;;;5056888;28;20032;-61
2024/02/04 05:41:11;;;;;;;38.70;24.63;;;9.50;99.90;;;;;;5059411;28;20598;-61
2024/02/04 05:43:38;;;;;;;35.05;16.00;;;9.50;99.90;;;;;;5058304;28;20032;-61
2024/02/04 05:46:04;;;;;;;34.05;13.85;;;9.50;99.90;;;;;;5059792;28;20013;-61
2024/02/04 05:48:29;;;;;;;31.55;14.38;;;9.50;99.90;;;;;;5058326;28;20027;-60
2024/02/04 05:50:55;;;;;;;25.85;11.00;;;9.50;99.90;;;;;;5054871;28;20021;-60
2024/02/04 05:53:20;;;;;;;35.15;15.55;;;9.50;99.90;;;;;;5057389;28;20032;-59
2024/02/04 05:55:46;;;;;;;26.92;11.20;;;9.50;99.90;;;;;;5059438;28;20086;-59
2024/02/04 05:58:13;;;;;;;36.58;16.95;;;9.40;99.90;;;;;;5062156;28;20028;-59
2024/02/04 06:00:39;;;;;;;36.13;14.85;;;9.50;99.90;;;;;;5062582;28;20036;-59
2024/02/04 06:03:05;;;;;;;32.85;14.98;;;9.40;99.90;;;;;;5061446;28;20029;-59
2024/02/04 06:05:31;;;;;;;34.25;14.13;;;9.30;99.90;;;;;;5061143;28;20028;-59
2024/02/04 06:07:57;;;;;;;37.15;16.05;;;9.40;99.90;;;;;;5060615;28;20024;-59
2024/02/04 06:10:22;;;;;;;33.60;11.20;;;9.40;99.90;;;;;;5057101;28;20035;-59
2024/02/04 06:12:48;;;;;;;28.17;13.00;;;9.40;99.90;;;;;;5055324;28;20503;-59
2024/02/04 06:15:15;;;;;;;36.92;15.00;;;9.40;99.90;;;;;;5060374;28;20047;-59
2024/02/04 06:17:41;;;;;;;24.40;9.40;;;9.40;99.90;;;;;;5057221;28;20030;-59
2024/02/04 06:20:07;;;;;;;26.27;12.30;;;9.40;99.90;;;;;;5053239;28;20036;-60
2024/02/04 06:22:35;;;;;;;29.42;14.65;;;9.40;99.90;;;;;;5056451;28;20379;-60
2024/02/04 06:25:01;;;;;;;23.02;10.45;;;9.40;99.90;;;;;;5058916;28;20021;-60
2024/02/04 06:27:26;;;;;;;32.95;14.55;;;9.40;99.90;;;;;;5059932;28;20043;-60
2024/02/04 06:29:52;;;;;;;26.13;11.70;;;9.40;99.90;;;;;;5056667;28;20413;-60
2024/02/04 06:32:20;;;;;;;32.55;15.98;;;9.40;99.90;;;;;;5060343;28;20028;-60
2024/02/04 06:34:46;;;;;;;32.33;14.35;;;9.40;99.90;;;;;;5055417;28;20036;-59
2024/02/04 06:37:12;;;;;;;32.30;14.38;;;9.30;99.90;;;;;;5057183;28;20021;-60
2024/02/04 06:39:38;;;;;;;32.75;15.18;;;9.30;99.90;;;;;;5059015;28;20023;-59
2024/02/04 06:42:04;;;;;;;36.88;15.80;;;9.30;99.90;;;;;;5059369;28;20401;-60
2024/02/04 06:44:29;;;;;;;31.30;13.15;;;9.40;99.90;;;;;;5056111;28;20107;-60
2024/02/04 06:46:55;;;;;;;37.83;16.63;;;9.40;99.90;;;;;;5048834;28;20021;-59
2024/02/04 06:49:21;;;;;;;42.50;18.33;;;9.30;99.90;;;;;;5060626;28;20063;-59
2024/02/04 06:51:47;;;;;;;41.13;16.20;;;9.40;99.90;;;;;;5059400;28;20028;-59
2024/02/04 06:54:13;;;;;;;38.10;15.77;;;9.40;99.90;;;;;;5061218;28;20838;-59
2024/02/04 06:56:39;;;;;;;42.70;18.25;;;9.20;99.90;;;;;;5063848;28;20067;-60
2024/02/04 06:59:05;;;;;;;43.58;16.40;;;9.40;99.90;;;;;;5064606;28;20056;-59
2024/02/04 07:01:31;;;;;;;44.60;16.75;;;9.30;99.90;;;;;;5065000;28;20032;-62
2024/02/04 07:03:57;;;;;;;38.63;14.10;;;9.30;99.90;;;;;;5061967;28;20115;-61
2024/02/04 07:06:22;;;;;;;34.53;12.80;;;9.30;99.90;;;;;;5058482;28;20096;-61
2024/02/04 07:08:48;;;;;;;27.67;12.13;;;9.30;99.90;;;;;;5063611;28;20086;-61
2024/02/04 07:11:14;;;;;;;34.88;14.38;;;9.30;99.90;;;;;;5061752;28;20029;-61
2024/02/04 07:13:39;;;;;;;36.55;13.68;;;9.30;99.90;;;;;;5063105;28;20503;-61
2024/02/04 07:16:05;;;;;;;26.70;10.55;;;9.30;99.90;;;;;;5064191;28;20021;-60
2024/02/04 07:18:31;;;;;;;31.85;12.13;;;9.30;99.90;;;;;;5058726;28;20071;-62
2024/02/04 07:20:57;;;;;;;33.53;14.27;;;9.40;99.90;;;;;;5056499;28;20112;-61
2024/02/04 07:23:22;;;;;;;36.75;20.20;;;9.30;99.90;;;;;;5058391;28;20020;-61
2024/02/04 07:25:48;;;;;;;32.55;15.95;;;9.40;99.90;;;;;;5063848;28;20075;-61
2024/02/04 07:28:14;;;;;;;27.48;10.88;;;9.40;99.90;;;;;;5060350;28;20032;-61
2024/02/04 07:30:40;;;;;;;22.83;8.68;;;9.40;99.90;;;;;;5059237;28;20103;-61
2024/02/04 07:33:06;;;;;;;24.02;12.13;;;9.40;99.90;;;;;;5057128;28;20085;-61
2024/02/04 07:35:32;;;;;;;28.95;11.63;;;9.40;99.90;;;;;;5061746;28;20020;-61
2024/02/04 07:37:57;;;;;;;31.02;11.35;;;9.40;99.90;;;;;;5057041;28;20025;-61
2024/02/04 07:40:23;;;;;;;23.73;10.05;;;9.40;99.90;;;;;;5058831;28;20085;-61
2024/02/04 07:42:49;;;;;;;29.38;12.65;;;9.40;99.90;;;;;;5055071;28;20037;-61
2024/02/04 07:45:15;;;;;;;28.27;14.35;;;9.40;99.90;;;;;;5054489;28;20031;-61
2024/02/04 07:47:41;;;;;;;29.60;15.95;;;9.50;99.90;;;;;;5056398;28;20017;-61
2024/02/04 07:50:07;;;;;;;25.05;10.52;;;9.50;99.90;;;;;;5055586;28;20024;-62
2024/02/04 07:52:33;;;;;;;24.02;11.63;;;9.50;99.90;;;;;;5060138;28;20096;-61
2024/02/04 07:54:58;;;;;;;27.33;9.75;;;9.50;99.90;;;;;;5055357;28;20108;-60
2024/02/04 07:57:24;;;;;;;27.42;11.48;;;9.50;99.90;;;;;;5061950;28;20020;-61
2024/02/04 07:59:49;;;;;;;28.20;12.32;;;9.50;99.90;;;;;;5058722;28;20029;-62
2024/02/04 08:02:15;;;;;;;24.98;11.63;;;9.50;99.90;;;;;;5065209;28;20361;-61
2024/02/04 08:04:41;;;;;;;20.38;8.73;;;9.50;99.90;;;;;;5056239;28;20028;-61
2024/02/04 08:07:07;;;;;;;29.25;11.32;;;9.60;99.90;;;;;;5055789;28;20013;-61
2024/02/04 08:09:33;;;;;;;22.25;8.40;;;9.60;99.90;;;;;;5063259;28;20032;-61
2024/02/04 08:11:58;;;;;;;23.50;9.25;;;9.60;99.90;;;;;;5056645;28;20481;-59
2024/02/04 08:14:24;;;;;;;22.58;11.45;;;9.60;99.90;;;;;;5057483;28;20016;-58
2024/02/04 08:16:50;;;;;;;19.50;7.45;;;9.60;99.90;;;;;;5057298;28;20592;-58
2024/02/04 08:19:16;;;;;;;24.73;9.00;;;9.60;99.90;;;;;;5058851;28;20032;-59
2024/02/04 08:21:41;;;;;;;20.80;9.63;;;9.60;99.90;;;;;;5052345;28;20021;-61
2024/02/04 08:24:07;;;;;;;21.27;9.50;;;9.60;99.90;;;;;;5055312;28;20499;-58
2024/02/04 08:26:33;;;;;;;19.77;8.35;;;9.60;99.90;;;;;;5057416;28;20024;-58
2024/02/04 08:28:59;;;;;;;20.65;7.30;;;9.60;99.90;;;;;;5058845;28;20021;-61
2024/02/04 08:31:25;;;;;;;16.88;7.85;;;9.60;99.90;;;;;;5057652;28;20039;-59
2024/02/04 08:33:52;;;;;;;13.73;6.65;;;9.60;99.90;;;;;;5057157;28;20484;-60
2024/02/04 08:36:18;;;;;;;10.85;4.75;;;9.60;99.90;;;;;;5055118;28;20081;-59
2024/02/04 08:38:44;;;;;;;16.95;6.55;;;9.60;99.90;;;;;;5057375;28;20118;-59
2024/02/04 08:41:09;;;;;;;21.02;8.50;;;9.60;99.90;;;;;;5056777;28;20602;-60
2024/02/04 08:43:35;;;;;;;17.63;7.65;;;9.60;99.90;;;;;;5051180;28;20465;-60
2024/02/04 08:46:00;;;;;;;18.90;8.60;;;9.60;99.90;;;;;;5057415;28;20108;-60
2024/02/04 08:48:26;;;;;;;15.88;6.50;;;9.60;99.90;;;;;;5059478;28;20568;-60
2024/02/04 08:50:54;;;;;;;15.13;6.53;;;9.60;99.90;;;;;;5057646;28;20021;-60
2024/02/04 08:53:20;;;;;;;16.60;4.88;;;9.60;99.90;;;;;;5059769;28;20028;-60
2024/02/04 08:55:45;;;;;;;14.85;5.60;;;9.70;99.90;;;;;;5058588;28;20517;-60
2024/02/04 08:58:11;;;;;;;11.38;4.95;;;9.70;99.90;;;;;;5059609;28;20032;-60
2024/02/04 09:00:36;;;;;;;15.07;8.05;;;9.70;99.90;;;;;;5055712;28;20045;-60
2024/02/04 09:03:02;;;;;;;12.82;5.88;;;9.70;99.90;;;;;;5060001;28;20025;-60
2024/02/04 09:05:28;;;;;;;14.57;6.15;;;9.60;99.90;;;;;;5061617;28;20480;-60
2024/02/04 09:07:55;;;;;;;11.18;4.35;;;9.70;99.90;;;;;;5059197;28;20025;-61
2024/02/04 09:10:21;;;;;;;15.13;5.30;;;9.70;99.90;;;;;;5061404;28;20036;-60
2024/02/04 09:12:47;;;;;;;13.07;5.78;;;9.70;99.90;;;;;;5061591;28;20459;-60
2024/02/04 09:15:13;;;;;;;13.15;6.55;;;9.70;99.90;;;;;;5056153;28;20097;-60
2024/02/04 09:17:38;;;;;;;14.88;6.25;;;9.80;99.90;;;;;;5304641;22;20038;-60
2024/02/04 09:20:05;;;;;;;9.60;4.25;;;9.70;99.90;;;;;;4950679;22;20042;-61
2024/02/04 09:22:31;;;;;;;13.10;6.22;;;9.80;99.90;;;;;;4988979;28;20114;-60
2024/02/04 09:24:56;;;;;;;10.48;4.05;;;9.80;99.90;;;;;;4991635;28;20133;-61
2024/02/04 09:27:22;;;;;;;12.30;5.00;;;9.80;99.90;;;;;;4993980;28;20035;-61
2024/02/04 09:29:48;;;;;;;10.70;5.07;;;9.80;99.90;;;;;;4990101;28;20026;-63
2024/02/04 09:32:13;;;;;;;8.98;3.17;;;9.90;99.90;;;;;;4992080;28;20400;-61
2024/02/04 09:34:39;;;;;;;10.30;3.92;;;9.80;99.90;;;;;;4990474;28;20038;-60
2024/02/04 09:37:04;;;;;;;12.35;4.10;;;9.90;99.90;;;;;;4991240;28;20549;-60
2024/02/04 09:39:30;;;;;;;10.23;4.30;;;9.80;99.90;;;;;;4985563;28;20019;-60
2024/02/04 09:41:56;;;;;;;8.27;3.67;;;9.80;99.90;;;;;;4990566;28;20038;-59
2024/02/04 09:44:23;;;;;;;8.65;3.47;;;9.80;99.90;;;;;;4988847;28;20018;-60
2024/02/04 09:46:49;;;;;;;9.23;4.20;;;9.70;99.90;;;;;;4986649;28;20018;-60
2024/02/04 09:49:15;;;;;;;7.78;3.22;;;9.50;99.90;;;;;;4989728;28;20032;-61
2024/02/04 09:51:41;;;;;;;9.50;3.50;;;9.40;99.90;;;;;;4991464;28;20465;-61
2024/02/04 09:54:10;;;;;;;10.52;4.15;;;9.30;99.90;;;;;;4989302;28;20038;-60
2024/02/04 09:56:37;;;;;;;11.15;4.53;;;9.30;99.90;;;;;;4997842;28;20512;-61
2024/02/04 09:59:04;;;;;;;11.15;4.63;;;9.20;99.90;;;;;;4993142;28;20521;-60
2024/02/04 10:01:31;;;;;;;10.02;4.38;;;9.20;99.90;;;;;;4987882;28;20019;-61
2024/02/04 10:03:57;;;;;;;13.13;5.45;;;9.20;99.90;;;;;;4990830;28;20449;-61
2024/02/04 10:06:24;;;;;;;11.48;5.15;;;9.20;99.90;;;;;;4983669;28;20030;-61
2024/02/04 10:08:50;;;;;;;13.90;5.65;;;9.20;99.90;;;;;;4988581;28;20106;-61
2024/02/04 10:11:16;;;;;;;16.27;7.82;;;9.30;99.90;;;;;;4991680;28;20121;-61
2024/02/04 10:13:44;;;;;;;19.23;9.15;;;9.30;99.90;;;;;;4990842;28;20034;-61
2024/02/04 10:16:09;;;;;;;17.30;8.30;;;9.40;99.90;;;;;;4992328;28;20036;-61
2024/02/04 10:18:35;;;;;;;19.63;10.60;;;9.40;99.90;;;;;;4996035;28;20163;-62
2024/02/04 10:21:01;;;;;;;15.88;7.10;;;9.50;99.90;;;;;;4985088;28;20389;-61
2024/02/04 10:23:27;;;;;;;19.77;12.80;;;9.60;99.90;;;;;;4988214;28;20038;-61
2024/02/04 10:25:59;;;;;;;17.77;7.88;;;9.60;99.90;;;;;;4990298;28;20528;-61
2024/02/04 10:28:25;;;;;;;15.93;9.15;;;9.70;99.90;;;;;;4997102;28;20105;-61
2024/02/04 10:30:52;;;;;;;19.13;8.60;;;9.70;99.90;;;;;;4993793;28;20018;-61
2024/02/04 10:33:17;;;;;;;17.55;7.53;;;9.70;99.90;;;;;;4994032;28;20076;-62
2024/02/04 10:35:43;;;;;;;17.63;8.27;;;9.80;99.90;;;;;;4996314;28;20034;-61
2024/02/04 10:38:10;;;;;;;14.98;7.15;;;9.80;99.90;;;;;;4993552;28;20094;-61
2024/02/04 10:40:35;;;;;;;15.98;7.72;;;9.80;99.90;;;;;;4992827;28;20034;-61
2024/02/04 10:43:07;;;;;;;15.10;6.43;;;9.90;99.90;;;;;;4994348;28;20085;-61
2024/02/04 10:45:38;;;;;;;13.68;5.95;;;10.00;99.90;;;;;;4993992;28;20019;-61
2024/02/04 10:48:06;;;;;;;14.93;6.45;;;10.00;99.90;;;;;;4996183;28;20382;-61
2024/02/04 10:50:35;;;;;;;16.20;7.22;;;10.00;99.90;;;;;;4996679;28;20018;-63
2024/02/04 10:53:07;;;;;;;14.40;7.22;;;10.00;99.90;;;;;;4995903;28;20033;-62
2024/02/04 10:55:35;;;;;;;15.95;6.60;;;10.00;99.90;;;;;;4998477;28;20018;-61
2024/02/04 10:58:02;;;;;;;18.60;8.30;;;10.00;99.90;;;;;;5000651;28;20060;-61
2024/02/04 11:00:28;;;;;;;14.52;6.88;;;10.00;99.90;;;;;;4997918;28;20109;-61
2024/02/04 11:02:55;;;;;;;12.57;5.28;;;10.00;99.90;;;;;;4990508;28;20049;-62
2024/02/04 11:05:22;;;;;;;14.70;6.63;;;10.00;99.90;;;;;;4994844;28;20087;-61
2024/02/04 11:07:50;;;;;;;16.85;8.82;;;9.90;99.90;;;;;;4994393;28;20030;-61
2024/02/04 11:10:17;;;;;;;15.77;8.35;;;9.90;99.90;;;;;;4997755;28;20152;-62
2024/02/04 11:12:44;;;;;;;13.50;6.70;;;9.90;99.90;;;;;;4995633;28;20066;-61
2024/02/04 11:15:13;;;;;;;17.60;7.95;;;9.90;99.90;;;;;;4993261;28;20026;-62
2024/02/04 11:18:10;;;;;;;15.05;6.97;;;9.90;99.90;;;;;;4995374;28;20030;-60
2024/02/04 11:21:17;;;;;;;12.25;6.45;;;10.00;99.90;;;;;;4988776;28;20053;-60
2024/02/04 11:24:10;;;;;;;12.85;5.78;;;10.10;99.90;;;;;;5005464;28;20038;-60
2024/02/04 11:26:40;;;;;;;16.05;6.60;;;10.30;99.90;;;;;;4990691;28;20815;-61
2024/02/04 11:29:07;;;;;;;;;;;10.40;99.90;;;;;;4989870;28;20037;-61
2024/02/04 11:31:32;;;;;;;12.93;4.70;;;10.60;99.90;;;;;;4992358;28;19992;-61
2024/02/04 11:34:00;;;;;;;12.02;4.45;;;10.60;99.90;;;;;;4992671;28;20049;-62
2024/02/04 11:36:25;;;;;;;7.97;3.35;;;10.70;99.90;;;;;;4995061;28;20559;-61
2024/02/04 11:38:51;;;;;;;10.50;4.30;;;10.70;99.90;;;;;;4987267;28;20073;-62
2024/02/04 11:41:25;;;;;;;8.68;4.13;;;10.70;99.90;;;;;;4989580;28;20034;-61
2024/02/04 11:43:55;;;;;;;12.07;4.97;;;10.70;99.90;;;;;;4984415;28;20034;-61
2024/02/04 11:46:21;;;;;;;;;;;10.60;99.90;;;;;;4988580;28;20037;-61
2024/02/04 11:48:53;;;;;;;9.07;4.00;;;10.60;99.90;;;;;;4988675;28;19921;-62
2024/02/04 11:51:22;;;;;;;8.23;3.65;;;10.60;99.90;;;;;;4986739;28;20054;-62
2024/02/04 11:53:48;;;;;;;10.50;4.20;;;10.60;99.90;;;;;;4975065;28;20466;-62
2024/02/04 11:56:14;;;;;;;9.63;3.78;;;10.50;99.90;;;;;;4983804;28;20030;-62
2024/02/04 11:58:40;;;;;;;9.52;3.72;;;10.50;99.90;;;;;;4985761;28;20038;-61
2024/02/04 12:01:10;;;;;;;8.95;3.72;;;10.60;99.90;;;;;;4986287;28;20347;-60
2024/02/04 12:03:36;;;;;;;8.93;3.77;;;10.60;99.90;;;;;;4984125;28;20701;-61
2024/02/04 12:06:03;;;;;;;9.20;3.53;;;10.50;99.90;;;;;;4988110;28;20014;-61
2024/02/04 12:08:31;;;;;;;10.38;5.25;;;10.40;99.90;;;;;;4983570;28;20101;-60
2024/02/04 12:10:57;;;;;;;9.75;3.83;;;10.30;99.90;;;;;;4985184;28;20037;-61
2024/02/04 12:13:24;;;;;;;10.40;4.03;;;10.30;99.90;;;;;;4984948;28;20026;-61
2024/02/04 12:15:50;;;;;;;8.15;3.58;;;10.30;99.90;;;;;;4982956;28;20519;-61
2024/02/04 12:18:19;;;;;;;5.93;2.35;;;10.20;99.90;;;;;;4988277;28;20046;-60
2024/02/04 12:20:48;;;;;;;6.75;2.63;;;10.20;99.90;;;;;;4984237;28;20030;-61
2024/02/04 12:23:14;;;;;;;7.38;2.35;;;10.00;99.90;;;;;;4984750;28;20038;-61
2024/02/04 12:25:40;;;;;;;6.50;2.40;;;10.00;99.90;;;;;;4984709;28;20034;-60
2024/02/04 12:28:06;;;;;;;6.18;2.30;;;10.00;99.90;;;;;;4985453;28;20022;-61
2024/02/04 12:30:33;;;;;;;7.72;3.45;;;9.90;99.90;;;;;;4985108;28;20027;-60
2024/02/04 12:32:59;;;;;;;6.32;2.55;;;10.00;99.90;;;;;;4984780;28;20026;-60
2024/02/04 12:35:28;;;;;;;8.30;3.40;;;10.00;99.90;;;;;;4979448;28;20057;-61
2024/02/04 12:37:56;;;;;;;9.25;4.05;;;10.00;99.90;;;;;;4985251;28;20025;-60
2024/02/04 12:40:22;;;;;;;12.82;6.57;;;10.00;99.90;;;;;;4984878;28;20019;-60